Time;durP1;ratioP1;P1;durP2;ratioP2;P2;SDS_P1;SDS_P2;PMS_P1;PMS_P2;Temp;Humidity;BMP_temperature;BMP_pressure;BME280_temperature;BME280_humidity;BME280_pressure;Samples;Min_cycle;Max_cycle;Signal;HPM_P1;HPM_P2
2023/08/16 00:01:27;;;;;;;16.37;15.60;;;23.00;1.00;;;;;;4902619;29;20490;-85
2023/08/16 00:04:00;;;;;;;16.30;15.70;;;22.90;99.90;;;;;;4910195;29;20454;-85
2023/08/16 00:06:34;;;;;;;17.30;16.40;;;22.90;99.90;;;;;;4905124;29;20470;-85
2023/08/16 00:09:07;;;;;;;17.20;16.27;;;22.80;99.90;;;;;;4908191;29;20458;-84
2023/08/16 00:11:35;;;;;;;16.00;15.30;;;22.50;99.90;;;;;;4904994;29;20513;-85
2023/08/16 00:14:08;;;;;;;16.50;15.80;;;22.60;99.90;;;;;;4907497;29;20485;-85
2023/08/16 00:16:43;;;;;;;16.93;16.23;;;22.80;99.90;;;;;;4910606;29;20486;-85
2023/08/16 00:19:14;;;;;;;17.43;16.70;;;22.80;99.90;;;;;;4905855;29;20449;-85
2023/08/16 00:21:44;;;;;;;17.63;16.70;;;22.80;99.90;;;;;;4904498;29;20466;-85
2023/08/16 00:24:18;;;;;;;17.00;16.00;;;22.70;99.90;;;;;;4903511;29;20917;-88
2023/08/16 00:26:51;;;;;;;16.20;15.60;;;22.70;1.00;;;;;;4905117;29;20489;-85
2023/08/16 00:29:23;;;;;;;16.20;15.60;;;22.80;99.90;;;;;;4907031;29;20812;-85
2023/08/16 00:31:57;;;;;;;16.33;15.63;;;22.70;99.90;;;;;;4905181;29;20485;-85
2023/08/16 00:34:26;;;;;;;16.17;15.20;;;22.70;1.00;;;;;;4903962;29;20461;-85
2023/08/16 00:36:59;;;;;;;15.83;15.23;;;22.70;1.00;;;;;;4908275;29;20573;-87
2023/08/16 00:39:30;;;;;;;15.93;15.33;;;22.70;1.00;;;;;;4913819;29;20976;-84
2023/08/16 00:42:04;;;;;;;16.80;16.10;;;22.70;1.00;;;;;;4909008;29;20517;-86
2023/08/16 00:44:40;;;;;;;16.07;15.40;;;22.60;1.00;;;;;;4904936;29;20462;-86
2023/08/16 00:47:11;;;;;;;17.10;16.50;;;22.60;1.00;;;;;;4905667;29;20490;-86
2023/08/16 00:49:41;;;;;;;17.03;16.20;;;22.60;99.90;;;;;;4919918;29;20473;-84
2023/08/16 00:52:12;;;;;;;16.70;15.90;;;22.60;90.10;;;;;;4902883;29;20483;-84
2023/08/16 00:54:44;;;;;;;16.40;15.73;;;22.50;99.90;;;;;;4903782;29;20905;-86
2023/08/16 00:57:18;;;;;;;17.17;16.40;;;22.60;82.50;;;;;;4903051;29;20486;-84
2023/08/16 00:59:48;;;;;;;17.30;16.37;;;22.60;77.60;;;;;;4902107;29;20472;-85
2023/08/16 01:02:19;;;;;;;16.60;15.90;;;22.50;99.90;;;;;;4906548;29;20463;-85
2023/08/16 01:04:54;;;;;;;18.00;17.00;;;22.50;99.90;;;;;;4923305;29;20461;-85
2023/08/16 01:07:29;;;;;;;16.50;15.80;;;22.50;65.10;;;;;;4902772;29;20501;-84
2023/08/16 01:10:06;;;;;;;16.70;16.00;;;22.50;81.50;;;;;;4906959;29;20458;-85
2023/08/16 01:12:40;;;;;;;16.77;15.97;;;22.40;81.30;;;;;;4905483;29;20517;-85
2023/08/16 01:15:19;;;;;;;17.17;16.40;;;22.50;99.90;;;;;;4907982;29;20445;-86
2023/08/16 01:17:51;;;;;;;16.20;15.60;;;22.50;1.00;;;;;;4905772;29;20481;-85
2023/08/16 01:20:25;;;;;;;17.57;16.30;;;22.50;1.00;;;;;;4904469;29;20455;-85
2023/08/16 01:23:04;;;;;;;17.30;16.60;;;22.50;1.00;;;;;;4904074;29;20463;-84
2023/08/16 01:25:44;;;;;;;17.53;16.80;;;22.50;1.00;;;;;;4905671;29;20470;-84
2023/08/16 01:28:18;;;;;;;16.47;15.87;;;22.40;1.00;;;;;;4905215;29;20451;-85
2023/08/16 01:30:55;;;;;;;16.67;15.90;;;22.30;35.80;;;;;;4905261;29;20500;-85
2023/08/16 01:33:25;;;;;;;17.63;16.83;;;22.40;1.00;;;;;;4904380;29;20557;-85
2023/08/16 01:36:00;;;;;;;16.83;16.13;;;22.40;1.00;;;;;;4905122;29;20465;-85
2023/08/16 01:38:33;;;;;;;16.07;15.47;;;22.40;1.00;;;;;;4904355;29;20553;-88
2023/08/16 01:41:11;;;;;;;16.87;15.97;;;22.40;99.90;;;;;;4904158;29;20457;-86
2023/08/16 01:43:48;;;;;;;17.07;16.37;;;22.40;99.90;;;;;;4922086;29;20948;-85
2023/08/16 01:46:27;;;;;;;17.53;16.63;;;22.40;99.90;;;;;;4906058;29;20479;-85
2023/08/16 01:48:59;;;;;;;16.47;15.83;;;22.40;1.00;;;;;;4909453;29;20459;-86
2023/08/16 01:51:30;;;;;;;17.00;16.20;;;22.30;1.00;;;;;;4903206;29;20453;-84
2023/08/16 01:54:04;;;;;;;16.67;16.07;;;22.30;1.00;;;;;;4907263;29;20455;-85
2023/08/16 01:56:32;;;;;;;16.73;16.03;;;22.30;1.00;;;;;;4904344;29;20513;-84
2023/08/16 01:59:05;;;;;;;16.43;15.83;;;22.20;1.00;;;;;;4902774;29;20470;-85
2023/08/16 02:01:41;;;;;;;17.67;16.93;;;22.20;19.50;;;;;;4902467;29;20470;-85
2023/08/16 02:04:14;;;;;;;17.13;16.43;;;22.20;82.30;;;;;;4921164;29;20461;-84
2023/08/16 02:06:43;;;;;;;17.07;16.37;;;22.20;99.90;;;;;;4903982;29;20556;-84
2023/08/16 02:09:20;;;;;;;17.83;16.97;;;22.20;1.00;;;;;;4908269;29;20465;-84
2023/08/16 02:11:53;;;;;;;17.80;17.00;;;22.20;1.00;;;;;;4908568;29;20446;-87
2023/08/16 02:14:28;;;;;;;17.40;16.70;;;22.20;53.60;;;;;;4905854;29;20537;-84
2023/08/16 02:17:04;;;;;;;17.23;16.53;;;22.10;99.90;;;;;;4907844;29;20517;-86
2023/08/16 02:19:35;;;;;;;17.13;16.53;;;22.10;99.90;;;;;;4905912;29;20454;-84
2023/08/16 02:22:07;;;;;;;17.60;16.70;;;22.10;95.00;;;;;;4907180;29;20461;-85
2023/08/16 02:24:43;;;;;;;16.97;16.27;;;22.10;99.90;;;;;;4923717;29;20521;-84
2023/08/16 02:27:12;;;;;;;16.80;16.10;;;22.20;27.00;;;;;;4906864;29;20848;-86
2023/08/16 02:29:48;;;;;;;17.60;16.67;;;22.20;45.30;;;;;;4909205;29;21162;-85
2023/08/16 02:32:17;;;;;;;17.60;16.80;;;22.10;1.00;;;;;;4904761;29;20492;-84
2023/08/16 02:34:49;;;;;;;16.87;16.17;;;22.10;1.00;;;;;;4907715;29;20468;-84
2023/08/16 02:37:18;;;;;;;17.40;16.53;;;22.10;1.00;;;;;;4906802;29;20492;-84
2023/08/16 02:39:46;;;;;;;17.20;16.50;;;22.00;1.00;;;;;;4907148;29;20885;-85
2023/08/16 02:42:15;;;;;;;17.53;16.80;;;22.10;1.00;;;;;;4909296;29;20906;-85
2023/08/16 02:44:43;;;;;;;17.83;17.00;;;22.00;1.00;;;;;;4904451;29;20469;-86
2023/08/16 02:47:15;;;;;;;17.53;16.83;;;22.00;79.10;;;;;;4908270;28;20517;-84
2023/08/16 02:49:49;;;;;;;18.83;18.03;;;21.90;99.90;;;;;;4907884;29;20445;-85
2023/08/16 02:52:25;;;;;;;17.57;16.83;;;22.00;99.90;;;;;;4910121;29;20924;-85
2023/08/16 02:55:04;;;;;;;17.50;16.80;;;21.90;99.90;;;;;;4907671;29;20955;-85
2023/08/16 02:57:36;;;;;;;17.20;16.50;;;21.90;99.90;;;;;;4907941;29;20961;-85
2023/08/16 03:00:09;;;;;;;17.57;16.77;;;21.90;99.90;;;;;;4907076;29;21350;-85
2023/08/16 03:02:42;;;;;;;17.47;16.70;;;21.90;99.90;;;;;;4909188;29;20470;-85
2023/08/16 03:05:14;;;;;;;18.23;17.33;;;21.90;99.90;;;;;;4905767;29;20462;-86
2023/08/16 03:07:42;;;;;;;17.60;16.77;;;21.90;88.10;;;;;;4906867;29;20450;-84
2023/08/16 03:10:12;;;;;;;17.73;17.00;;;21.80;99.90;;;;;;4907681;29;20492;-85
2023/08/16 03:12:42;;;;;;;17.40;16.60;;;21.90;99.90;;;;;;4906900;29;20489;-84
2023/08/16 03:15:16;;;;;;;17.67;16.63;;;21.90;99.90;;;;;;4904306;29;20464;-85
2023/08/16 03:17:46;;;;;;;18.13;17.30;;;21.80;67.80;;;;;;4907992;29;20464;-86
2023/08/16 03:20:20;;;;;;;17.57;16.77;;;21.90;30.10;;;;;;4911577;29;20477;-85
2023/08/16 03:22:53;;;;;;;17.97;17.00;;;21.90;1.00;;;;;;4908298;29;20453;-87
2023/08/16 03:25:24;;;;;;;18.00;17.10;;;21.90;1.00;;;;;;4907397;29;20459;-87
2023/08/16 03:28:01;;;;;;;17.30;16.60;;;21.90;1.00;;;;;;4907586;29;20464;-85
2023/08/16 03:30:38;;;;;;;17.60;16.80;;;21.80;1.00;;;;;;4908048;29;20591;-85
2023/08/16 03:33:14;;;;;;;17.87;17.10;;;21.70;71.70;;;;;;4905454;29;20822;-84
2023/08/16 03:35:50;;;;;;;18.00;17.30;;;21.70;32.20;;;;;;4907273;29;20496;-84
2023/08/16 03:38:24;;;;;;;17.63;16.83;;;21.70;27.50;;;;;;4909052;29;20446;-85
2023/08/16 03:40:58;;;;;;;18.43;17.63;;;21.70;59.10;;;;;;4907946;29;20462;-85
2023/08/16 03:43:36;;;;;;;17.67;16.57;;;21.70;18.10;;;;;;4909233;29;20445;-86
2023/08/16 03:46:11;;;;;;;18.80;17.70;;;21.70;18.10;;;;;;4913229;29;21037;-85
2023/08/16 03:48:44;;;;;;;18.13;17.03;;;21.70;1.00;;;;;;4905790;29;20485;-85
2023/08/16 03:51:19;;;;;;;17.93;16.93;;;21.60;1.00;;;;;;4906987;29;20480;-85
2023/08/16 03:53:52;;;;;;;17.67;16.87;;;21.60;1.00;;;;;;4909143;29;20926;-84
2023/08/16 03:56:26;;;;;;;18.03;17.10;;;21.50;92.80;;;;;;4921538;29;20497;-85
2023/08/16 03:58:59;;;;;;;17.23;16.53;;;21.60;1.00;;;;;;4909496;29;20465;-84
2023/08/16 04:01:30;;;;;;;18.00;17.30;;;21.60;1.00;;;;;;4905705;29;20918;-85
2023/08/16 04:04:04;;;;;;;17.93;17.10;;;21.60;1.00;;;;;;4905525;29;20468;-84
2023/08/16 04:06:38;;;;;;;18.87;18.07;;;21.50;1.00;;;;;;4907996;29;20477;-84
2023/08/16 04:09:16;;;;;;;18.33;17.40;;;21.60;1.00;;;;;;4911756;29;20544;-86
2023/08/16 04:11:50;;;;;;;18.10;17.30;;;21.60;1.00;;;;;;4907308;29;20471;-87
2023/08/16 04:14:22;;;;;;;18.93;18.03;;;21.60;1.00;;;;;;4906322;29;20601;-85
2023/08/16 04:17:00;;;;;;;19.20;18.20;;;21.50;1.00;;;;;;4906872;29;20499;-85
2023/08/16 04:19:33;;;;;;;18.03;17.33;;;21.50;1.00;;;;;;4910297;29;20499;-85
2023/08/16 04:22:10;;;;;;;18.57;17.70;;;21.50;1.00;;;;;;4906524;29;20460;-84
2023/08/16 04:24:40;;;;;;;19.47;18.47;;;21.40;1.00;;;;;;4901814;29;20457;-84
2023/08/16 04:27:11;;;;;;;18.40;17.40;;;21.40;1.00;;;;;;4906935;29;20489;-86
2023/08/16 04:29:40;;;;;;;17.90;17.20;;;21.40;1.00;;;;;;4905941;29;20458;-86
2023/08/16 04:32:10;;;;;;;17.80;17.10;;;21.50;1.00;;;;;;4902477;29;20501;-85
2023/08/16 04:34:46;;;;;;;18.40;17.60;;;21.50;99.90;;;;;;4907140;29;20492;-85
2023/08/16 04:37:16;;;;;;;18.87;17.90;;;21.50;99.90;;;;;;4903945;28;20485;-84
2023/08/16 04:39:48;;;;;;;19.33;18.43;;;21.50;99.90;;;;;;4902741;29;20988;-84
2023/08/16 04:42:18;;;;;;;18.50;17.80;;;21.50;99.90;;;;;;4903606;29;20470;-85
2023/08/16 04:44:54;;;;;;;18.57;17.70;;;21.50;99.90;;;;;;4907136;29;20458;-85
2023/08/16 04:47:26;;;;;;;19.20;18.13;;;21.50;1.00;;;;;;4903286;29;21002;-84
2023/08/16 04:50:03;;;;;;;18.10;17.50;;;21.50;1.00;;;;;;4919521;29;20527;-85
2023/08/16 04:52:37;;;;;;;17.73;17.03;;;21.50;1.00;;;;;;4904209;29;20472;-85
2023/08/16 04:55:09;;;;;;;18.70;18.00;;;21.50;1.00;;;;;;4905999;29;20567;-86
2023/08/16 04:57:44;;;;;;;17.93;17.20;;;21.50;1.00;;;;;;4904687;29;20482;-85
2023/08/16 05:00:13;;;;;;;17.97;17.27;;;21.60;1.00;;;;;;4904118;29;20522;-84
2023/08/16 05:02:45;;;;;;;18.00;17.30;;;21.60;1.00;;;;;;4905991;29;20457;-85
2023/08/16 05:05:21;;;;;;;18.47;17.77;;;21.70;1.00;;;;;;4902907;29;20469;-86
2023/08/16 05:07:56;;;;;;;18.00;17.30;;;21.60;1.00;;;;;;4904207;29;20457;-87
2023/08/16 05:10:34;;;;;;;17.87;17.00;;;21.60;1.00;;;;;;4903148;29;20457;-84
2023/08/16 05:13:03;;;;;;;17.43;16.63;;;21.70;1.00;;;;;;4912308;29;20475;-84
2023/08/16 05:15:33;;;;;;;17.13;16.33;;;21.70;99.90;;;;;;4905746;29;20505;-85
2023/08/16 05:18:06;;;;;;;17.30;16.60;;;21.70;99.90;;;;;;4902058;29;20902;-84
2023/08/16 05:20:45;;;;;;;17.47;16.77;;;21.80;99.90;;;;;;4904912;29;20446;-87
2023/08/16 05:23:26;;;;;;;17.27;16.50;;;21.80;1.00;;;;;;4906745;29;21017;-84
2023/08/16 05:26:06;;;;;;;17.50;16.83;;;21.80;99.90;;;;;;4904363;29;21025;-86
2023/08/16 05:28:38;;;;;;;17.33;16.60;;;21.90;99.90;;;;;;4905467;29;20461;-84
2023/08/16 05:31:09;;;;;;;17.10;16.40;;;22.00;99.90;;;;;;4907143;29;20457;-84
2023/08/16 05:33:43;;;;;;;17.10;16.50;;;21.90;99.90;;;;;;4910088;29;20470;-85
2023/08/16 05:36:19;;;;;;;16.90;16.20;;;22.00;1.00;;;;;;4907753;29;20478;-86
2023/08/16 05:38:50;;;;;;;17.50;16.57;;;22.00;99.90;;;;;;4903762;29;20477;-86
2023/08/16 05:41:25;;;;;;;17.13;16.43;;;22.10;89.00;;;;;;4906219;29;20517;-85
2023/08/16 05:43:59;;;;;;;17.10;16.50;;;22.10;1.00;;;;;;4903472;29;20486;-84
2023/08/16 05:46:31;;;;;;;16.60;16.10;;;22.10;99.90;;;;;;4901831;29;20901;-85
2023/08/16 05:49:09;;;;;;;17.30;16.60;;;22.10;1.00;;;;;;4905225;29;20489;-85
2023/08/16 05:51:39;;;;;;;17.50;16.80;;;22.20;1.00;;;;;;4904522;29;20541;-85
2023/08/16 05:54:15;;;;;;;17.07;16.47;;;22.30;1.00;;;;;;4905358;29;20517;-85
2023/08/16 05:56:58;;;;;;;17.40;16.70;;;22.40;46.30;;;;;;4909639;29;20482;-87
2023/08/16 05:59:33;;;;;;;17.37;16.57;;;22.50;1.00;;;;;;4904043;29;20535;-85
2023/08/16 06:02:06;;;;;;;17.70;17.00;;;22.50;99.90;;;;;;4903207;29;20486;-85
2023/08/16 06:04:38;;;;;;;17.17;16.47;;;22.60;99.90;;;;;;4906879;29;20931;-85
2023/08/16 06:07:12;;;;;;;17.43;16.73;;;22.70;1.00;;;;;;4902838;29;20477;-85
2023/08/16 06:09:50;;;;;;;17.77;17.07;;;22.90;1.00;;;;;;4902405;29;20574;-86
2023/08/16 06:12:21;;;;;;;18.27;17.47;;;23.00;99.90;;;;;;4904315;29;20446;-84
2023/08/16 06:14:55;;;;;;;17.40;16.70;;;23.00;1.00;;;;;;4904045;29;20490;-85
2023/08/16 06:17:30;;;;;;;17.63;17.03;;;22.90;99.90;;;;;;4919512;29;21118;-86
2023/08/16 06:20:07;;;;;;;18.63;17.60;;;23.00;1.00;;;;;;4910863;29;20470;-87
2023/08/16 06:22:45;;;;;;;18.20;17.50;;;22.90;58.20;;;;;;4906323;29;20937;-88
2023/08/16 06:25:22;;;;;;;17.53;16.83;;;22.90;1.00;;;;;;4904551;29;20469;-87
2023/08/16 06:27:55;;;;;;;18.07;17.27;;;22.90;99.90;;;;;;4906513;29;20534;-86
2023/08/16 06:30:33;;;;;;;18.27;17.37;;;23.10;1.00;;;;;;4903566;29;20458;-87
2023/08/16 06:33:05;;;;;;;17.67;17.03;;;23.20;1.00;;;;;;4907618;29;20451;-84
2023/08/16 06:35:37;;;;;;;17.80;17.10;;;23.50;29.20;;;;;;4903988;29;20489;-86
2023/08/16 06:38:14;;;;;;;18.37;17.47;;;23.60;99.90;;;;;;4907128;29;20454;-86
2023/08/16 06:40:45;;;;;;;18.63;17.77;;;23.60;99.90;;;;;;4903443;29;20561;-85
2023/08/16 06:43:20;;;;;;;18.50;17.60;;;23.80;99.90;;;;;;4908496;29;20457;-84
2023/08/16 06:45:53;;;;;;;18.20;17.50;;;24.00;99.90;;;;;;4905562;29;20905;-85
2023/08/16 06:48:25;;;;;;;18.77;18.07;;;24.10;1.00;;;;;;4907572;29;21186;-85
2023/08/16 06:51:01;;;;;;;18.77;18.07;;;24.20;1.00;;;;;;4909147;29;20501;-84
2023/08/16 06:53:38;;;;;;;18.70;18.00;;;24.30;99.90;;;;;;4908969;29;20465;-87
2023/08/16 06:56:09;;;;;;;19.23;18.33;;;24.40;99.90;;;;;;4906833;29;20649;-88
2023/08/16 06:58:42;;;;;;;18.90;18.13;;;24.70;99.90;;;;;;4910378;29;20975;-88
2023/08/16 07:01:20;;;;;;;18.50;17.80;;;24.80;99.90;;;;;;4908713;29;20471;-86
2023/08/16 07:03:52;;;;;;;18.47;17.73;;;25.00;31.40;;;;;;4903586;29;20466;-88
2023/08/16 07:06:26;;;;;;;19.37;18.50;;;25.00;1.00;;;;;;4907777;29;20473;-85
2023/08/16 07:09:04;;;;;;;19.13;18.20;;;25.20;1.00;;;;;;4910388;29;20999;-85
2023/08/16 07:11:35;;;;;;;18.40;17.70;;;25.30;1.00;;;;;;4902825;29;20486;-85
2023/08/16 07:14:11;;;;;;;19.03;18.23;;;25.50;1.00;;;;;;4909231;29;20490;-87
2023/08/16 07:16:42;;;;;;;18.10;17.37;;;25.60;99.90;;;;;;4910135;29;20516;-84
2023/08/16 07:19:12;;;;;;;18.30;17.70;;;25.60;99.90;;;;;;4907490;29;20469;-86
2023/08/16 07:21:48;;;;;;;18.90;18.20;;;25.60;99.90;;;;;;4906495;29;20481;-85
2023/08/16 07:24:25;;;;;;;19.20;18.40;;;25.60;99.90;;;;;;4908381;29;20472;-85
2023/08/16 07:26:54;;;;;;;18.40;17.60;;;25.60;99.90;;;;;;4904463;29;20561;-85
2023/08/16 07:29:30;;;;;;;19.37;18.50;;;25.50;99.90;;;;;;4904888;29;20494;-85
2023/08/16 07:32:05;;;;;;;20.07;18.73;;;25.50;99.90;;;;;;4904925;29;20451;-86
2023/08/16 07:34:36;;;;;;;19.10;18.27;;;25.50;99.90;;;;;;4907238;29;20466;-84
2023/08/16 07:37:08;;;;;;;18.80;18.00;;;25.50;99.90;;;;;;4904189;29;21156;-85
2023/08/16 07:39:42;;;;;;;18.40;17.77;;;25.60;99.90;;;;;;4907189;29;20458;-85
2023/08/16 07:42:18;;;;;;;18.50;17.80;;;25.60;99.90;;;;;;4902862;29;20897;-85
2023/08/16 07:44:48;;;;;;;18.70;18.03;;;25.60;99.90;;;;;;4905008;29;20553;-85
2023/08/16 07:47:25;;;;;;;18.73;18.03;;;25.70;99.90;;;;;;4905895;29;20482;-85
2023/08/16 07:49:58;;;;;;;19.80;18.80;;;25.70;99.90;;;;;;4908445;29;20691;-86
2023/08/16 07:52:30;;;;;;;19.47;18.57;;;25.60;99.90;;;;;;4904499;29;20453;-85
2023/08/16 07:55:04;;;;;;;19.47;18.67;;;25.60;99.90;;;;;;4905692;29;20560;-84
2023/08/16 07:57:39;;;;;;;19.40;18.60;;;25.70;1.00;;;;;;4905163;29;20504;-85
2023/08/16 08:00:17;;;;;;;19.13;18.33;;;25.70;99.90;;;;;;4902989;29;20490;-87
2023/08/16 08:02:53;;;;;;;19.40;18.50;;;25.80;99.90;;;;;;4906288;29;20466;-85
2023/08/16 08:05:31;;;;;;;20.47;19.10;;;25.80;99.90;;;;;;4904927;29;20577;-85
2023/08/16 08:08:04;;;;;;;19.93;19.00;;;25.80;99.90;;;;;;4901249;29;20465;-85
2023/08/16 08:10:37;;;;;;;18.70;17.80;;;25.80;99.90;;;;;;4903962;29;20465;-85
2023/08/16 08:13:12;;;;;;;19.17;18.47;;;25.80;99.90;;;;;;4909529;29;20462;-85
2023/08/16 08:15:41;;;;;;;20.37;19.07;;;25.90;99.90;;;;;;4905336;29;20524;-84
2023/08/16 08:18:12;;;;;;;20.63;19.57;;;26.00;99.90;;;;;;4903962;29;20871;-85
2023/08/16 08:20:51;;;;;;;19.47;18.47;;;26.10;99.90;;;;;;4905196;29;20450;-86
2023/08/16 08:23:19;;;;;;;20.10;18.97;;;26.10;99.90;;;;;;4904223;29;20458;-85
2023/08/16 08:25:51;;;;;;;18.97;18.27;;;26.00;43.60;;;;;;4907816;29;20506;-85
2023/08/16 08:28:24;;;;;;;19.67;18.77;;;26.10;99.90;;;;;;4906317;29;20482;-87
2023/08/16 08:30:53;;;;;;;20.23;18.93;;;26.10;86.40;;;;;;4907189;29;20961;-85
2023/08/16 08:33:23;;;;;;;19.87;18.90;;;26.10;1.00;;;;;;4903760;29;20453;-85
2023/08/16 08:35:55;;;;;;;20.13;19.23;;;26.20;35.90;;;;;;4907813;29;20514;-85
2023/08/16 08:38:29;;;;;;;18.87;18.10;;;26.20;1.00;;;;;;4906479;29;20466;-86
2023/08/16 08:41:08;;;;;;;19.57;18.57;;;26.20;1.00;;;;;;4908337;29;20462;-85
2023/08/16 08:43:40;;;;;;;20.20;19.20;;;26.30;1.00;;;;;;4908618;29;20443;-85
2023/08/16 08:46:35;;;;;;;20.20;19.20;;;26.40;1.00;;;;;;4907760;29;20820;-86
2023/08/16 08:49:07;;;;;;;19.50;18.67;;;26.40;1.00;;;;;;4904835;29;20453;-87
2023/08/16 08:51:41;;;;;;;20.40;19.40;;;26.40;1.00;;;;;;4909903;29;20462;-85
2023/08/16 08:54:12;;;;;;;19.60;18.80;;;26.40;1.00;;;;;;4904821;29;20466;-84
2023/08/16 08:56:52;;;;;;;19.20;18.33;;;26.40;1.00;;;;;;4902600;29;20995;-88
2023/08/16 08:59:23;;;;;;;20.53;19.40;;;26.50;1.00;;;;;;4910943;29;20453;-85
2023/08/16 09:01:54;;;;;;;20.23;19.33;;;26.50;1.00;;;;;;4906513;29;20827;-85
2023/08/16 09:04:29;;;;;;;20.10;19.20;;;26.60;1.00;;;;;;4906143;29;20836;-85
2023/08/16 09:07:08;;;;;;;19.70;18.50;;;26.50;1.00;;;;;;4905587;29;20477;-84
2023/08/16 09:09:44;;;;;;;18.57;17.80;;;26.50;1.00;;;;;;4903962;29;20494;-86
2023/08/16 09:12:19;;;;;;;19.80;18.90;;;26.60;1.00;;;;;;4908320;29;20464;-87
2023/08/16 09:14:50;;;;;;;19.40;18.40;;;26.60;1.00;;;;;;4904271;29;20858;-85
2023/08/16 09:17:20;;;;;;;19.80;18.83;;;26.70;1.00;;;;;;4909076;29;20490;-85
2023/08/16 09:20:00;;;;;;;18.57;17.77;;;26.80;1.00;;;;;;4909852;29;21268;-86
2023/08/16 09:22:36;;;;;;;19.83;18.80;;;26.80;1.00;;;;;;4901760;29;20522;-84
2023/08/16 09:25:11;;;;;;;19.57;18.67;;;26.90;1.00;;;;;;4903414;29;21147;-85
2023/08/16 09:27:52;;;;;;;18.83;18.03;;;26.90;1.00;;;;;;4908767;29;20448;-85
2023/08/16 09:30:30;;;;;;;20.57;19.23;;;27.00;1.00;;;;;;4905352;29;20457;-85
2023/08/16 09:33:03;;;;;;;19.80;18.90;;;27.00;1.00;;;;;;4904960;29;20462;-85
2023/08/16 09:35:41;;;;;;;20.23;19.23;;;26.90;1.00;;;;;;4902815;29;20454;-85
2023/08/16 09:38:12;;;;;;;20.00;18.90;;;27.00;1.00;;;;;;4906138;29;20485;-85
2023/08/16 09:40:56;;;;;;;18.43;17.73;;;27.10;1.00;;;;;;4903891;29;20947;-84
2023/08/16 09:43:32;;;;;;;19.63;18.83;;;27.10;1.00;;;;;;4901979;29;20481;-85
2023/08/16 09:46:10;;;;;;;20.10;19.20;;;27.10;1.00;;;;;;4905140;29;20501;-85
2023/08/16 09:48:46;;;;;;;19.40;18.50;;;27.10;1.00;;;;;;4906166;29;20465;-85
2023/08/16 09:51:21;;;;;;;19.00;18.20;;;27.10;1.00;;;;;;4908519;29;21049;-86
2023/08/16 09:54:17;;;;;;;19.37;18.57;;;27.20;1.00;;;;;;4906204;29;20470;-88
2023/08/16 09:56:47;;;;;;;19.70;18.70;;;27.20;1.00;;;;;;4917194;29;20500;-85
2023/08/16 09:59:27;;;;;;;20.30;19.27;;;27.30;1.00;;;;;;4904762;29;20465;-85
2023/08/16 10:01:59;;;;;;;20.03;19.23;;;27.30;1.00;;;;;;4905786;29;20484;-85
2023/08/16 10:04:39;;;;;;;20.07;18.80;;;27.40;1.00;;;;;;4899794;29;20473;-85
2023/08/16 10:07:16;;;;;;;19.87;18.73;;;27.50;1.00;;;;;;4906566;28;20466;-85
2023/08/16 10:09:50;;;;;;;20.20;19.30;;;27.50;1.00;;;;;;4904943;29;20466;-86
2023/08/16 10:12:23;;;;;;;21.17;19.80;;;27.50;1.00;;;;;;4904050;29;20834;-85
2023/08/16 10:14:55;;;;;;;19.53;18.53;;;27.40;1.00;;;;;;4904437;29;20472;-85
2023/08/16 10:17:28;;;;;;;20.13;18.80;;;27.40;1.00;;;;;;4900527;29;20503;-86
2023/08/16 10:20:02;;;;;;;21.03;19.73;;;27.40;1.00;;;;;;4908688;29;20454;-85
2023/08/16 10:22:41;;;;;;;19.20;18.40;;;27.40;1.00;;;;;;4902776;29;20500;-88
2023/08/16 10:25:16;;;;;;;19.97;19.00;;;27.50;1.00;;;;;;4907279;29;20461;-86
2023/08/16 10:27:51;;;;;;;19.67;18.83;;;27.50;1.00;;;;;;4906810;29;20470;-86
2023/08/16 10:30:26;;;;;;;19.47;18.67;;;27.50;1.00;;;;;;4906758;29;20458;-87
2023/08/16 10:32:59;;;;;;;19.63;18.83;;;27.60;1.00;;;;;;4906759;29;20468;-85
2023/08/16 10:35:29;;;;;;;19.70;18.80;;;27.60;1.00;;;;;;4920716;29;20472;-84
2023/08/16 10:38:00;;;;;;;19.93;18.80;;;27.70;1.00;;;;;;4909134;29;20508;-87
2023/08/16 10:40:35;;;;;;;19.37;18.50;;;27.70;1.00;;;;;;4906473;29;20454;-85
2023/08/16 10:43:08;;;;;;;20.50;19.50;;;27.70;1.00;;;;;;4906022;29;20469;-86
2023/08/16 10:45:48;;;;;;;20.57;19.53;;;27.80;1.00;;;;;;4906258;29;20470;-88
2023/08/16 10:48:23;;;;;;;20.13;19.20;;;27.80;1.00;;;;;;4906943;29;20896;-86
2023/08/16 10:50:56;;;;;;;20.27;19.30;;;27.80;1.00;;;;;;4906532;29;20450;-85
2023/08/16 10:53:31;;;;;;;19.53;18.70;;;27.80;1.00;;;;;;4907317;29;20473;-86
2023/08/16 10:56:06;;;;;;;20.57;19.70;;;27.80;1.00;;;;;;4906294;29;20482;-85
2023/08/16 10:58:47;;;;;;;19.73;18.80;;;27.90;1.00;;;;;;4911523;29;20481;-85
2023/08/16 11:01:22;;;;;;;19.03;18.13;;;27.90;1.00;;;;;;4908776;29;20556;-85
2023/08/16 11:03:55;;;;;;;20.07;19.17;;;27.90;1.00;;;;;;4907092;29;20951;-85
2023/08/16 11:06:25;;;;;;;20.60;19.63;;;28.00;1.00;;;;;;4906777;29;20939;-85
2023/08/16 11:08:59;;;;;;;19.70;18.83;;;28.00;1.00;;;;;;4906802;29;20458;-85
2023/08/16 11:11:27;;;;;;;20.30;19.30;;;28.00;1.00;;;;;;4909686;29;20551;-85
2023/08/16 11:14:00;;;;;;;20.10;19.07;;;28.10;1.00;;;;;;4906677;29;21042;-86
2023/08/16 11:16:34;;;;;;;19.67;18.57;;;28.10;1.00;;;;;;4905012;29;20572;-85
2023/08/16 11:19:08;;;;;;;19.70;18.80;;;28.00;1.00;;;;;;4906298;29;20461;-84
2023/08/16 11:21:46;;;;;;;19.77;18.77;;;28.00;1.00;;;;;;4906044;29;20446;-85
2023/08/16 11:24:20;;;;;;;20.63;19.60;;;28.10;99.90;;;;;;4907077;29;20549;-86
2023/08/16 11:26:55;;;;;;;19.90;18.90;;;28.20;99.90;;;;;;4918621;29;21090;-85
2023/08/16 11:29:30;;;;;;;19.87;18.73;;;28.10;99.90;;;;;;4906772;29;20464;-86
2023/08/16 11:32:07;;;;;;;20.13;19.20;;;28.20;99.90;;;;;;4905797;29;21126;-85
2023/08/16 11:34:39;;;;;;;20.33;19.27;;;28.20;99.90;;;;;;4907724;29;20466;-85
2023/08/16 11:37:26;;;;;;;20.17;19.27;;;28.20;99.90;;;;;;4906123;29;20521;-85
2023/08/16 11:40:04;;;;;;;19.97;19.07;;;28.20;99.90;;;;;;4908734;29;20816;-85
2023/08/16 11:42:41;;;;;;;20.10;19.00;;;28.10;99.90;;;;;;4907518;29;20914;-85
2023/08/16 11:45:25;;;;;;;19.90;18.90;;;28.20;99.90;;;;;;4905834;29;20463;-85
2023/08/16 11:48:02;;;;;;;19.80;18.90;;;28.30;99.90;;;;;;4908696;29;20450;-85
2023/08/16 11:50:37;;;;;;;19.53;18.73;;;28.30;99.90;;;;;;4905746;29;20475;-86
2023/08/16 11:53:18;;;;;;;20.60;19.40;;;28.30;99.90;;;;;;4904843;29;20485;-86
2023/08/16 11:55:59;;;;;;;20.00;19.10;;;28.40;99.90;;;;;;4910564;29;20474;-85
2023/08/16 11:58:34;;;;;;;20.23;19.27;;;28.50;99.90;;;;;;4907839;29;20525;-85
2023/08/16 12:01:09;;;;;;;19.97;19.17;;;28.40;99.90;;;;;;4902093;29;20472;-85
2023/08/16 12:03:43;;;;;;;20.17;19.20;;;28.40;99.90;;;;;;4904544;29;20454;-86
2023/08/16 12:06:20;;;;;;;19.43;18.63;;;28.50;99.90;;;;;;4905970;28;21142;-85
2023/08/16 12:08:50;;;;;;;20.07;19.00;;;28.50;99.90;;;;;;4907740;29;20517;-87
2023/08/16 12:11:35;;;;;;;19.63;18.73;;;28.50;99.90;;;;;;4905679;29;20533;-85
2023/08/16 12:14:11;;;;;;;19.20;18.30;;;28.50;99.90;;;;;;4903304;29;20541;-85
2023/08/16 12:16:42;;;;;;;19.63;18.73;;;28.60;99.90;;;;;;4906847;29;20485;-85
2023/08/16 12:19:18;;;;;;;20.20;19.10;;;28.70;99.90;;;;;;4906034;29;21125;-86
2023/08/16 12:21:52;;;;;;;21.17;20.17;;;28.70;99.90;;;;;;4903497;29;20468;-86
2023/08/16 12:24:25;;;;;;;19.60;18.60;;;28.70;99.90;;;;;;4907030;29;20702;-86
2023/08/16 12:26:59;;;;;;;19.80;18.90;;;28.70;99.90;;;;;;4909154;29;20458;-85
2023/08/16 12:29:30;;;;;;;19.77;18.97;;;28.80;99.90;;;;;;4904644;29;20462;-85
2023/08/16 12:32:03;;;;;;;20.03;19.13;;;28.80;99.90;;;;;;4904336;29;20454;-87
2023/08/16 12:34:38;;;;;;;19.90;18.90;;;28.90;99.90;;;;;;4902391;29;20474;-86
2023/08/16 12:37:12;;;;;;;19.30;18.50;;;28.80;99.90;;;;;;4905133;29;20848;-88
2023/08/16 12:39:46;;;;;;;19.67;18.87;;;28.80;99.90;;;;;;4903550;29;20475;-85
2023/08/16 12:42:16;;;;;;;19.53;18.73;;;28.80;99.90;;;;;;4903032;29;20459;-87
2023/08/16 12:44:58;;;;;;;20.93;19.43;;;28.90;99.90;;;;;;4908293;29;21268;-85
2023/08/16 12:47:28;;;;;;;19.60;18.50;;;29.00;99.90;;;;;;4904552;29;20482;-88
2023/08/16 12:50:02;;;;;;;19.13;18.13;;;28.90;99.90;;;;;;4905807;29;20450;-86
2023/08/16 12:52:40;;;;;;;19.13;17.93;;;28.90;99.90;;;;;;4904653;29;20458;-86
2023/08/16 12:55:11;;;;;;;19.47;18.67;;;29.00;99.90;;;;;;4900449;29;20497;-86
2023/08/16 12:57:48;;;;;;;19.30;18.40;;;29.00;99.90;;;;;;4906286;29;20470;-86
2023/08/16 13:00:30;;;;;;;19.80;19.00;;;29.10;99.90;;;;;;4903063;29;20466;-86
2023/08/16 13:03:05;;;;;;;19.20;18.30;;;29.10;99.90;;;;;;4903500;29;20980;-85
2023/08/16 13:05:42;;;;;;;19.37;18.30;;;29.10;99.90;;;;;;4904056;29;20465;-86